Nearby METAR Reports

 

LEVT - Vitoria, Spain
Distance from station: O 10km
Actualización: 23/04/2019 11:30
Parcialmente nuboso
Parcialmente nuboso
 Viento del ONO
Viento: ONO 2 km/h
Temperatura: 14°C
Rocío: 8°C
Humedad: 67%
Barómetro: 995 hPa
Clouds: Parcialmente nuboso
Visibility: 10 km
Cloud details: Few Clouds 1524 m
Parcialmente nuboso 2134 m
2019/04/23 09:30 LEVT 230930Z 29001KT 9999 FEW050 SCT070 14/08 Q0995
LELO - Logrono/Agoncill, Spain
Distance from station: SSE 51km
Actualización: 23/04/2019 11:30
Muy nuboso
Muy nuboso
 Viento del ENE
Viento: ENE 11 km/h
Temperatura: 14°C
Rocío: 11°C
Humedad: 82%
Barómetro: 995 hPa
Clouds: Muy nuboso
Visibility: 10 km
Cloud details: Parcialmente nuboso 1067 m
Muy nuboso 2134 m
2019/04/23 09:30 LELO 230930Z 07006KT 040V110 9999 SCT035 BKN070 14/11 Q0995
LEBB - Bilbao/Sondica, Spain
Distance from station: NNO 54km
Actualización: 23/04/2019 12:00
Parcialmente nuboso
Parcialmente nuboso
 Viento del SSO
Viento: SSO 11 km/h
Temperatura: 19°C
Rocío: 10°C
Humedad: 56%
Barómetro: 994 hPa
Clouds: Parcialmente nuboso
Visibility: 10 km
Cloud details: Few Clouds 1280 m
Parcialmente nuboso 1829 m
2019/04/23 10:00 LEBB 231000Z 21006KT 140V270 9999 FEW042 SCT060 19/10 Q0994 NOSIG
 
LEPP - Pamplona/Noain, Spain
Distance from station: E 78km
Actualización: 23/04/2019 12:00
Parcialmente nuboso
Parcialmente nuboso
 Viento del SSE
Viento: SSE 17 km/h
Temperatura: 17°C
Rocío: 8°C
Humedad: 56%
Barómetro: 995 hPa
Clouds: Parcialmente nuboso
Visibility: 10 km
Cloud details: Parcialmente nuboso 1250 m
2019/04/23 10:00 LEPP 231000Z 16009KT 120V220 9999 SCT041 17/08 Q0995
LESO - San Sebastian/Fu, Spain
Distance from station: NE 85km
Actualización: 23/04/2019 12:00
Few Clouds
Few Clouds
 Viento del NNE
Viento: NNE 6 km/h
Temperatura: 19°C
Rocío: 11°C
Humedad: 60%
Barómetro: 994 hPa
Clouds: Few Clouds
Visibility: 10 km
Cloud details: Few Clouds 914 m
2019/04/23 10:00 LESO 231000Z 02003KT 350V060 9999 FEW030 19/11 Q0994
LEBG - Burgos/Villafria, Spain
Distance from station: SO 100km
Actualización: 23/04/2019 12:00
Lluvia débil, Muy nuboso
Lluvia débil, Muy nuboso
 Viento del SO
Viento: SO 17 km/h
Temperatura: 7°C
Wind Chill: 4°C
Rocío: 5°C
Humedad: 87%
Barómetro: 996 hPa
Resumen: Lluvia débil
Clouds: Muy nuboso
Visibility: 10 km
Cloud details: Muy nuboso 457 m
2019/04/23 10:00 LEBG 231000Z 23009KT 9999 -RA BKN015 07/05 Q0996
 
LFBZ - Biarritz/Anglet, France
Distance from station: NE 111km
Actualización: 23/04/2019 12:00
Despejado
Despejado
 Viento del E
Viento: E 9 km/h
Temperatura: 19°C
Rocío: 12°C
Humedad: 64%
Barómetro: 994 hPa
Resumen: Despejado
Visibility: greater than 10 km
2019/04/23 10:00 LFBZ 231000Z AUTO 09005KT CAVOK 19/12 Q0994 TEMPO SCT010 BKN060TCU
LEXJ - Santander/Paraya, Spain
Distance from station: ONO 117km
Actualización: 23/04/2019 12:00
Parcialmente nuboso
Parcialmente nuboso
 Viento del varies
Viento: varies 4 km/h
Temperatura: 15°C
Rocío: 12°C
Humedad: 82%
Barómetro: 994 hPa
Clouds: Parcialmente nuboso
Visibility: 10 km
Cloud details: Parcialmente nuboso 427 m
2019/04/23 10:00 LEXJ 231000Z VRB02KT 9999 SCT014 15/12 Q0994